Terminal Aerodrome Forecast
Issued by NWS

Home | Current Version | Previous Version | Text Only | Print | Product List | Glossary On
Versions: 1 2 3 4 5 6 7 8 9 10 11 12 13 14 15 16 17 18
000
FTUS45 KTFX 261700
TAFLWT
TAF
KLWT 261725Z 2618/2718 28006KT P6SM OVC012
      TEMPO 2618/2622 1SM -SN OVC007
     FM270200 18006KT P6SM SCT015 SCT180
     FM270900 19006KT P6SM BKN180
     FM271500 22006KT P6SM VCSH BKN035=

USA.gov is the U.S. government's official web portal to all federal, state and local government web resources and services.